EDDG

Münster Osnabrück Airport

Münster, Germany
METAR EDDG 220450Z 26013KT 9999 RA BKN015 OVC035 10/09 Q1020 BECMG NSW
Observed Flight Rules
Jun-22 @ 04:50 UTC (42 minutes ago) Marginal Visual Flight Rules
Wind Visibility Clouds Conditions
260° at 13 knots 10,000+ meters
  • Broken at 1,500' AGL
  • Overcast at 3,500' AGL
  • Rain
Temperatures Readings
Current 10°C / 50°F
Dewpoint 9°C / 48°F
Humidity 94%
Altimeter 30.12" Hg
Pressure 1020 hPa
Elevation 52
METAR EDDG 220450Z 26013KT 9999 RA BKN015 OVC035 10/09 Q1020 BECMG NSW
Observed Flight Rules
Jun-22 @ 04:50 UTC
(42 minutes ago)
MVFR
Wind Visibility
260° at 13 knots 10,000+ meters
Clouds
  • Broken at 1,500' AGL
  • Overcast at 3,500' AGL
Conditions
  • Rain
Temperature Dewpoint
10°C / 50°F 9°C / 48°F
Humidity Altimeter Pressure
94% 30.12" Hg 1020 hPa